createdAt,value
2022-11-06T00:00:04.761Z,1015.76
2022-11-06T00:01:04.761Z,1015.74
2022-11-06T00:02:04.775Z,1015.73
2022-11-06T00:03:04.839Z,1015.74
2022-11-06T00:04:04.730Z,1015.73
2022-11-06T00:05:04.710Z,1015.72
2022-11-06T00:06:04.692Z,1015.66
2022-11-06T00:07:04.712Z,1015.69
2022-11-06T00:08:04.719Z,1015.64
2022-11-06T00:09:04.664Z,1015.63
2022-11-06T00:10:04.679Z,1015.61
2022-11-06T00:11:04.620Z,1015.61
2022-11-06T00:12:04.607Z,1015.56
2022-11-06T00:13:04.711Z,1015.59
2022-11-06T00:14:04.620Z,1015.55
2022-11-06T00:15:04.597Z,1015.56
2022-11-06T00:16:04.623Z,1015.58
2022-11-06T00:17:04.573Z,1015.50
2022-11-06T00:18:04.592Z,1015.54
2022-11-06T00:19:04.560Z,1015.53
2022-11-06T00:20:04.569Z,1015.53
2022-11-06T00:21:04.564Z,1015.50
2022-11-06T00:22:04.610Z,1015.48
2022-11-06T00:23:04.518Z,1015.51
2022-11-06T00:24:04.547Z,1015.51
2022-11-06T00:25:04.535Z,1015.43
2022-11-06T00:26:04.538Z,1015.52
2022-11-06T00:27:04.501Z,1015.49
2022-11-06T00:28:04.449Z,1015.48
2022-11-06T00:29:04.474Z,1015.43
2022-11-06T00:30:04.436Z,1015.42
2022-11-06T00:31:04.471Z,1015.40
2022-11-06T00:32:04.506Z,1015.47
2022-11-06T00:33:04.397Z,1015.41
2022-11-06T00:34:04.418Z,1015.43
2022-11-06T00:35:04.469Z,1015.48
2022-11-06T00:36:04.365Z,1015.41
2022-11-06T00:37:04.408Z,1015.44
2022-11-06T00:38:04.348Z,1015.45
2022-11-06T00:39:04.336Z,1015.44
2022-11-06T00:40:04.363Z,1015.47
2022-11-06T00:41:04.348Z,1015.39
2022-11-06T00:42:04.321Z,1015.41
2022-11-06T00:43:04.319Z,1015.42
2022-11-06T00:44:04.317Z,1015.35
2022-11-06T00:45:04.277Z,1015.39
2022-11-06T00:46:04.297Z,1015.39
2022-11-06T00:47:04.309Z,1015.36
2022-11-06T00:48:04.258Z,1015.40
2022-11-06T00:49:04.236Z,1015.38
2022-11-06T00:50:04.240Z,1015.41
2022-11-06T00:51:04.234Z,1015.33
2022-11-06T00:52:04.256Z,1015.34
2022-11-06T00:53:04.252Z,1015.34
2022-11-06T00:54:04.202Z,1015.33
2022-11-06T00:55:04.211Z,1015.38
2022-11-06T00:56:04.201Z,1015.39
2022-11-06T00:57:04.209Z,1015.41
2022-11-06T00:58:04.193Z,1015.34
2022-11-06T00:59:04.158Z,1015.39
2022-11-06T01:00:04.192Z,1015.34
2022-11-06T01:01:04.206Z,1015.32
2022-11-06T01:02:04.263Z,1015.27
2022-11-06T01:03:04.210Z,1015.34
2022-11-06T01:04:04.063Z,1015.22
2022-11-06T01:05:04.082Z,1015.22
2022-11-06T01:06:04.043Z,1015.30
2022-11-06T01:07:04.031Z,1015.32
2022-11-06T01:08:04.148Z,1015.34
2022-11-06T01:09:04.039Z,1015.29
2022-11-06T01:10:04.083Z,1015.28
2022-11-06T01:11:04.022Z,1015.25
2022-11-06T01:12:13.307Z,1015.24
2022-11-06T01:13:05.002Z,1015.24
2022-11-06T01:14:03.966Z,1015.17
2022-11-06T01:15:04.005Z,1015.27
2022-11-06T01:16:03.945Z,1015.16
2022-11-06T01:17:03.958Z,1015.18
2022-11-06T01:18:04.029Z,1015.17
2022-11-06T01:19:03.972Z,1015.25
2022-11-06T01:20:03.944Z,1015.21
2022-11-06T01:21:03.927Z,1015.18
2022-11-06T01:22:03.925Z,1015.19
2022-11-06T01:23:03.905Z,1015.29
2022-11-06T01:24:03.933Z,1015.26
2022-11-06T01:25:03.846Z,1015.17
2022-11-06T01:26:03.872Z,1015.15
2022-11-06T01:28:04.844Z,1015.14
2022-11-06T01:29:03.817Z,1015.14
2022-11-06T01:30:03.790Z,1015.13
2022-11-06T01:31:03.776Z,1015.15
2022-11-06T01:32:03.836Z,1015.21
2022-11-06T01:33:03.807Z,1015.20
2022-11-06T01:34:03.778Z,1015.15
2022-11-06T01:35:03.737Z,1015.15
2022-11-06T01:36:03.734Z,1015.11
2022-11-06T01:37:03.710Z,1015.16
2022-11-06T01:38:03.719Z,1015.15
2022-11-06T01:39:03.696Z,1015.21
2022-11-06T01:40:03.730Z,1015.20
2022-11-06T01:41:03.696Z,1015.11
2022-11-06T01:42:03.686Z,1015.15
2022-11-06T01:43:03.691Z,1015.18
2022-11-06T01:44:06.205Z,1015.20
2022-11-06T01:45:04.642Z,1015.18
2022-11-06T01:46:03.722Z,1015.13
2022-11-06T01:47:03.602Z,1015.16
2022-11-06T01:48:03.696Z,1015.17
2022-11-06T01:49:03.625Z,1015.15
2022-11-06T01:50:03.600Z,1015.18
2022-11-06T01:51:03.562Z,1015.16
2022-11-06T01:52:03.606Z,1015.10
2022-11-06T01:53:03.592Z,1015.13
2022-11-06T01:54:03.570Z,1015.19
2022-11-06T01:55:03.589Z,1015.19
2022-11-06T01:56:03.515Z,1015.15
2022-11-06T01:57:03.543Z,1015.20
2022-11-06T01:58:03.507Z,1015.15
2022-11-06T01:59:03.473Z,1015.19
2022-11-06T02:00:03.487Z,1015.14
2022-11-06T02:01:03.524Z,1015.10
2022-11-06T02:02:03.570Z,1015.13
2022-11-06T02:03:03.627Z,1015.10
2022-11-06T02:04:03.439Z,1015.07
2022-11-06T02:05:03.433Z,1015.04
2022-11-06T02:06:03.450Z,1015.05
2022-11-06T02:07:03.405Z,1015.04
2022-11-06T02:08:03.422Z,1015.01
2022-11-06T02:09:03.467Z,1015.08
2022-11-06T02:10:03.402Z,1015.04
2022-11-06T02:11:03.420Z,1015.07
2022-11-06T02:12:03.374Z,1014.99
2022-11-06T02:13:03.327Z,1014.96
2022-11-06T02:14:03.656Z,1014.97
2022-11-06T02:15:03.357Z,1014.88
2022-11-06T02:16:03.299Z,1015.02
2022-11-06T02:17:03.323Z,1014.94
2022-11-06T02:18:03.279Z,1015.03
2022-11-06T02:19:03.307Z,1014.97
2022-11-06T02:20:03.299Z,1014.98
2022-11-06T02:21:03.257Z,1015.00
2022-11-06T02:22:03.269Z,1014.86
2022-11-06T02:23:03.240Z,1014.90
2022-11-06T02:24:03.283Z,1014.87
2022-11-06T02:25:03.219Z,1014.89
2022-11-06T02:26:03.230Z,1014.95
2022-11-06T02:27:03.206Z,1014.93
2022-11-06T02:28:03.242Z,1014.84
2022-11-06T02:29:03.189Z,1014.88
2022-11-06T02:30:03.184Z,1014.85
2022-11-06T02:31:03.160Z,1014.84
2022-11-06T02:32:03.118Z,1014.80
2022-11-06T02:33:03.128Z,1014.78
2022-11-06T02:34:03.121Z,1014.82
2022-11-06T02:35:03.152Z,1014.79
2022-11-06T02:36:03.082Z,1014.77
2022-11-06T02:37:03.106Z,1014.80
2022-11-06T02:38:03.067Z,1014.79
2022-11-06T02:39:03.099Z,1014.73
2022-11-06T02:40:03.114Z,1014.73
2022-11-06T02:41:03.102Z,1014.73
2022-11-06T02:42:03.064Z,1014.70
2022-11-06T02:43:03.048Z,1014.76
2022-11-06T02:44:03.007Z,1014.68
2022-11-06T02:45:03.005Z,1014.74
2022-11-06T02:46:03.023Z,1014.65
2022-11-06T02:47:03.005Z,1014.71
2022-11-06T02:48:02.981Z,1014.68
2022-11-06T02:49:02.946Z,1014.59
2022-11-06T02:50:02.932Z,1014.58
2022-11-06T02:51:02.977Z,1014.51
2022-11-06T02:52:02.998Z,1014.46
2022-11-06T02:53:02.913Z,1014.47
2022-11-06T02:54:02.918Z,1014.50
2022-11-06T02:55:02.921Z,1014.40
2022-11-06T02:56:02.931Z,1014.44
2022-11-06T02:57:02.945Z,1014.42
2022-11-06T02:58:02.916Z,1014.49
2022-11-06T02:59:02.838Z,1014.38
2022-11-06T03:00:02.835Z,1014.38
2022-11-06T03:01:02.826Z,1014.38
2022-11-06T03:02:02.980Z,1014.37
2022-11-06T03:03:02.957Z,1014.35
2022-11-06T03:04:02.814Z,1014.35
2022-11-06T03:05:02.810Z,1014.33
2022-11-06T03:06:02.785Z,1014.34
2022-11-06T03:07:02.748Z,1014.30
2022-11-06T03:08:02.815Z,1014.23
2022-11-06T03:09:02.753Z,1014.35
2022-11-06T03:10:02.728Z,1014.37
2022-11-06T03:11:02.792Z,1014.35
2022-11-06T03:12:02.743Z,1014.35
2022-11-06T03:13:02.702Z,1014.37
2022-11-06T03:14:02.734Z,1014.34
2022-11-06T03:15:02.783Z,1014.42
2022-11-06T03:16:02.669Z,1014.35
2022-11-06T03:17:02.633Z,1014.33
2022-11-06T03:18:02.628Z,1014.32
2022-11-06T03:19:02.669Z,1014.29
2022-11-06T03:20:02.683Z,1014.26
2022-11-06T03:21:02.610Z,1014.28
2022-11-06T03:22:02.634Z,1014.19
2022-11-06T03:23:02.586Z,1014.21
2022-11-06T03:24:02.585Z,1014.17
2022-11-06T03:25:02.557Z,1014.17
2022-11-06T03:26:02.604Z,1014.22
2022-11-06T03:27:02.526Z,1014.27
2022-11-06T03:28:02.531Z,1014.25
2022-11-06T03:29:02.510Z,1014.18
2022-11-06T03:30:02.525Z,1014.22
2022-11-06T03:31:02.491Z,1014.25
2022-11-06T03:32:02.530Z,1014.19
2022-11-06T03:33:02.472Z,1014.19
2022-11-06T03:34:02.451Z,1014.22
2022-11-06T03:35:02.448Z,1014.13
2022-11-06T03:36:02.434Z,1014.21
2022-11-06T03:37:02.499Z,1014.14
2022-11-06T03:38:02.464Z,1014.16
2022-11-06T03:39:02.416Z,1014.06
2022-11-06T03:40:02.393Z,1014.18
2022-11-06T03:41:02.389Z,1014.17
2022-11-06T03:42:02.397Z,1014.16
2022-11-06T03:43:02.366Z,1014.10
2022-11-06T03:44:02.386Z,1014.15
2022-11-06T03:45:02.353Z,1014.20
2022-11-06T03:46:02.337Z,1014.07
2022-11-06T03:47:02.316Z,1014.13
2022-11-06T03:48:02.316Z,1014.08
2022-11-06T03:49:02.318Z,1014.07
2022-11-06T03:50:02.351Z,1014.05
2022-11-06T03:51:02.277Z,1013.99
2022-11-06T03:52:02.293Z,1014.09
2022-11-06T03:53:02.282Z,1014.08
2022-11-06T03:54:02.269Z,1014.01
2022-11-06T03:55:02.233Z,1014.02
2022-11-06T03:56:02.275Z,1013.97
2022-11-06T03:57:02.216Z,1013.99
2022-11-06T03:58:02.255Z,1014.05
2022-11-06T03:59:02.346Z,1013.98
2022-11-06T04:00:02.190Z,1014.02
2022-11-06T04:01:02.182Z,1013.97
2022-11-06T04:02:02.333Z,1014.01
2022-11-06T04:03:02.212Z,1013.97
2022-11-06T04:04:02.125Z,1013.96
2022-11-06T04:05:02.119Z,1013.97
2022-11-06T04:06:02.132Z,1013.94
2022-11-06T04:07:02.088Z,1013.97
2022-11-06T04:08:02.089Z,1013.98
2022-11-06T04:09:02.069Z,1013.99
2022-11-06T04:10:02.087Z,1013.96
2022-11-06T04:11:02.103Z,1013.88
2022-11-06T04:12:02.053Z,1013.92
2022-11-06T04:13:02.051Z,1013.95
2022-11-06T04:14:02.095Z,1013.99
2022-11-06T04:15:02.038Z,1013.99
2022-11-06T04:16:02.012Z,1013.91
2022-11-06T04:17:02.031Z,1013.88
2022-11-06T04:18:01.993Z,1013.81
2022-11-06T04:19:01.992Z,1013.87
2022-11-06T04:20:02.057Z,1013.78
2022-11-06T04:21:01.982Z,1013.82
2022-11-06T04:22:01.955Z,1013.86
2022-11-06T04:23:01.988Z,1013.80
2022-11-06T04:24:01.972Z,1013.85
2022-11-06T04:25:01.943Z,1013.84
2022-11-06T04:26:01.905Z,1013.82
2022-11-06T04:27:01.923Z,1013.81
2022-11-06T04:28:01.922Z,1013.77
2022-11-06T04:29:01.893Z,1013.84
2022-11-06T04:30:01.875Z,1013.77
2022-11-06T04:31:01.878Z,1013.83
2022-11-06T04:32:01.848Z,1013.78
2022-11-06T04:33:01.822Z,1013.76
2022-11-06T04:34:01.845Z,1013.77
2022-11-06T04:35:01.845Z,1013.78
2022-11-06T04:36:01.849Z,1013.76
2022-11-06T04:37:01.786Z,1013.77
2022-11-06T04:38:01.781Z,1013.76
2022-11-06T04:39:01.756Z,1013.73
2022-11-06T04:40:01.772Z,1013.72
2022-11-06T04:41:01.730Z,1013.75
2022-11-06T04:42:01.727Z,1013.68
2022-11-06T04:43:01.736Z,1013.71
2022-11-06T04:44:01.807Z,1013.75
2022-11-06T04:45:01.784Z,1013.74
2022-11-06T04:46:01.737Z,1013.67
2022-11-06T04:47:01.743Z,1013.63
2022-11-06T04:48:01.737Z,1013.72
2022-11-06T04:49:01.723Z,1013.72
2022-11-06T04:50:01.641Z,1013.64
2022-11-06T04:51:01.671Z,1013.63
2022-11-06T04:52:01.656Z,1013.61
2022-11-06T04:53:01.642Z,1013.52
2022-11-06T04:54:01.630Z,1013.56
2022-11-06T04:55:01.633Z,1013.53
2022-11-06T04:56:01.597Z,1013.59
2022-11-06T04:57:01.606Z,1013.59
2022-11-06T04:58:01.645Z,1013.55
2022-11-06T04:59:01.640Z,1013.53
2022-11-06T05:00:01.610Z,1013.55
2022-11-06T05:01:01.613Z,1013.52
2022-11-06T05:02:01.619Z,1013.48
2022-11-06T05:03:01.560Z,1013.51
2022-11-06T05:04:01.541Z,1013.52
2022-11-06T05:05:01.490Z,1013.45
2022-11-06T05:06:01.553Z,1013.41
2022-11-06T05:07:01.458Z,1013.46
2022-11-06T05:08:01.577Z,1013.45
2022-11-06T05:09:01.466Z,1013.43
2022-11-06T05:10:01.565Z,1013.49
2022-11-06T05:11:01.410Z,1013.34
2022-11-06T05:12:01.414Z,1013.38
2022-11-06T05:13:01.402Z,1013.38
2022-11-06T05:14:01.457Z,1013.47
2022-11-06T05:15:01.398Z,1013.41
2022-11-06T05:16:01.362Z,1013.37
2022-11-06T05:17:01.408Z,1013.30
2022-11-06T05:18:01.354Z,1013.31
2022-11-06T05:19:01.357Z,1013.33
2022-11-06T05:20:01.375Z,1013.35
2022-11-06T05:21:01.315Z,1013.17
2022-11-06T05:22:01.325Z,1013.23
2022-11-06T05:23:01.336Z,1013.26
2022-11-06T05:24:01.274Z,1013.25
2022-11-06T05:25:01.253Z,1013.24
2022-11-06T05:26:01.291Z,1013.22
2022-11-06T05:27:01.249Z,1013.30
2022-11-06T05:28:01.275Z,1013.26
2022-11-06T05:29:01.240Z,1013.22
2022-11-06T05:30:01.250Z,1013.23
2022-11-06T05:31:01.214Z,1013.25
2022-11-06T05:32:01.277Z,1013.26
2022-11-06T05:33:01.224Z,1013.23
2022-11-06T05:34:01.211Z,1013.26
2022-11-06T05:35:01.165Z,1013.26
2022-11-06T05:36:01.220Z,1013.28
2022-11-06T05:37:01.213Z,1013.21
2022-11-06T05:38:01.123Z,1013.13
2022-11-06T05:39:01.144Z,1013.14
2022-11-06T05:40:01.130Z,1013.22
2022-11-06T05:41:01.099Z,1013.24
2022-11-06T05:42:01.080Z,1013.22
2022-11-06T05:43:01.099Z,1013.14
2022-11-06T05:44:01.089Z,1013.24
2022-11-06T05:45:01.087Z,1013.23
2022-11-06T05:46:01.027Z,1013.25
2022-11-06T05:47:01.039Z,1013.18
2022-11-06T05:48:01.009Z,1013.28
2022-11-06T05:49:01.020Z,1013.21
2022-11-06T05:50:00.984Z,1013.16
2022-11-06T05:51:00.987Z,1013.17
2022-11-06T05:52:01.026Z,1013.12
2022-11-06T05:53:00.993Z,1013.10
2022-11-06T05:54:01.632Z,1013.10
2022-11-06T05:55:01.087Z,1013.10
2022-11-06T05:56:00.932Z,1013.17
2022-11-06T05:57:00.932Z,1013.16
2022-11-06T05:58:00.927Z,1013.18
2022-11-06T05:59:00.929Z,1013.22
2022-11-06T06:00:01.000Z,1013.18
2022-11-06T06:01:00.890Z,1013.17
2022-11-06T06:02:00.956Z,1013.17
2022-11-06T06:03:00.965Z,1013.23
2022-11-06T06:04:00.908Z,1013.21
2022-11-06T06:05:00.894Z,1013.26
2022-11-06T06:06:00.930Z,1013.24
2022-11-06T06:07:00.853Z,1013.21
2022-11-06T06:08:00.812Z,1013.23
2022-11-06T06:09:00.838Z,1013.28
2022-11-06T06:10:00.785Z,1013.24
2022-11-06T06:11:00.777Z,1013.29
2022-11-06T06:12:00.856Z,1013.33
2022-11-06T06:13:00.794Z,1013.29
2022-11-06T06:14:00.765Z,1013.30
2022-11-06T06:15:00.785Z,1013.24
2022-11-06T06:16:00.773Z,1013.26
2022-11-06T06:17:00.709Z,1013.30
2022-11-06T06:18:00.746Z,1013.37
2022-11-06T06:19:00.705Z,1013.29
2022-11-06T06:20:00.719Z,1013.38
2022-11-06T06:21:00.744Z,1013.35
2022-11-06T06:22:00.677Z,1013.41
2022-11-06T06:23:00.683Z,1013.39
2022-11-06T06:24:00.790Z,1013.37
2022-11-06T06:25:00.709Z,1013.38
2022-11-06T06:26:00.639Z,1013.47
2022-11-06T06:27:00.645Z,1013.36
2022-11-06T06:28:00.627Z,1013.40
2022-11-06T06:29:00.645Z,1013.42
2022-11-06T06:30:00.600Z,1013.48
2022-11-06T06:31:01.959Z,1013.46
2022-11-06T06:32:00.553Z,1013.46
2022-11-06T06:33:00.552Z,1013.53
2022-11-06T06:34:00.570Z,1013.47
2022-11-06T06:35:00.640Z,1013.53
2022-11-06T06:36:00.510Z,1013.51
2022-11-06T06:37:00.503Z,1013.47
2022-11-06T06:38:00.532Z,1013.59
2022-11-06T06:39:00.504Z,1013.53
2022-11-06T06:40:00.507Z,1013.56
2022-11-06T06:41:00.463Z,1013.56
2022-11-06T06:42:00.452Z,1013.56
2022-11-06T06:43:00.457Z,1013.53
2022-11-06T06:44:00.465Z,1013.52
2022-11-06T06:45:00.423Z,1013.51
2022-11-06T06:46:00.399Z,1013.48
2022-11-06T06:47:00.372Z,1013.49
2022-11-06T06:48:00.413Z,1013.51
2022-11-06T06:49:00.364Z,1013.48
2022-11-06T06:50:00.360Z,1013.55
2022-11-06T06:51:00.360Z,1013.54
2022-11-06T06:52:00.337Z,1013.49
2022-11-06T06:53:00.351Z,1013.55
2022-11-06T06:54:00.343Z,1013.62
2022-11-06T06:55:00.342Z,1013.57
2022-11-06T06:56:00.361Z,1013.56
2022-11-06T06:57:00.270Z,1013.55
2022-11-06T06:58:00.303Z,1013.58
2022-11-06T06:59:00.280Z,1013.60
2022-11-06T07:00:00.315Z,1013.56
2022-11-06T07:01:00.316Z,1013.54
2022-11-06T07:02:00.294Z,1013.60
2022-11-06T07:03:00.214Z,1013.49
2022-11-06T07:04:04.235Z,1013.50
2022-11-06T07:05:00.231Z,1013.49
2022-11-06T07:06:00.173Z,1013.50
2022-11-06T07:07:00.194Z,1013.54
2022-11-06T07:08:00.216Z,1013.61
2022-11-06T07:09:00.154Z,1013.62
2022-11-06T07:10:00.134Z,1013.65
2022-11-06T07:11:00.145Z,1013.63
2022-11-06T07:12:00.125Z,1013.64
2022-11-06T07:13:00.086Z,1013.65
2022-11-06T07:14:00.182Z,1013.77
2022-11-06T07:15:00.091Z,1013.63
2022-11-06T07:16:00.103Z,1013.75
2022-11-06T07:17:00.099Z,1013.60
2022-11-06T07:18:00.059Z,1013.64
2022-11-06T07:19:00.051Z,1013.60
2022-11-06T07:20:00.046Z,1013.58
2022-11-06T07:21:00.039Z,1013.65
2022-11-06T07:22:00.104Z,1013.60
2022-11-06T07:22:59.998Z,1013.56
2022-11-06T07:24:00.028Z,1013.57
2022-11-06T07:24:59.986Z,1013.54
2022-11-06T07:26:00.020Z,1013.56
2022-11-06T07:26:59.966Z,1013.46
2022-11-06T07:28:02.658Z,1013.46
2022-11-06T07:28:59.990Z,1013.53
2022-11-06T07:29:59.920Z,1013.50
2022-11-06T07:30:59.951Z,1013.45
2022-11-06T07:31:59.972Z,1013.52
2022-11-06T07:32:59.899Z,1013.49
2022-11-06T07:33:59.896Z,1013.54
2022-11-06T07:34:59.885Z,1013.59
2022-11-06T07:35:59.890Z,1013.51
2022-11-06T07:37:04.022Z,1013.64
2022-11-06T07:38:00.976Z,1013.53
2022-11-06T07:38:59.852Z,1013.54
2022-11-06T07:39:59.838Z,1013.61
2022-11-06T07:40:59.848Z,1013.58
2022-11-06T07:41:59.822Z,1013.52
2022-11-06T07:42:59.814Z,1013.62
2022-11-06T07:43:59.852Z,1013.52
2022-11-06T07:44:59.774Z,1013.57
2022-11-06T07:45:59.766Z,1013.50
2022-11-06T07:46:59.735Z,1013.50
2022-11-06T07:47:59.803Z,1013.58
2022-11-06T07:48:59.752Z,1013.60
2022-11-06T07:49:59.914Z,1013.56
2022-11-06T07:50:59.723Z,1013.54
2022-11-06T07:51:59.703Z,1013.49
2022-11-06T07:52:59.673Z,1013.50
2022-11-06T07:53:59.662Z,1013.56
2022-11-06T07:54:59.655Z,1013.49
2022-11-06T07:55:59.726Z,1013.46
2022-11-06T07:56:59.632Z,1013.51
2022-11-06T07:57:59.703Z,1013.52
2022-11-06T07:58:59.594Z,1013.61
2022-11-06T07:59:59.609Z,1013.59
2022-11-06T08:00:59.719Z,1013.64
2022-11-06T08:01:59.680Z,1013.58
2022-11-06T08:02:59.568Z,1013.63
2022-11-06T08:03:59.616Z,1013.62
2022-11-06T08:04:59.559Z,1013.60
2022-11-06T08:05:59.682Z,1013.49
2022-11-06T08:06:59.590Z,1013.54
2022-11-06T08:07:59.510Z,1013.49
2022-11-06T08:08:59.531Z,1013.52
2022-11-06T08:09:59.510Z,1013.51
2022-11-06T08:10:59.528Z,1013.48
2022-11-06T08:11:59.515Z,1013.51
2022-11-06T08:12:59.461Z,1013.40
2022-11-06T08:13:59.438Z,1013.44
2022-11-06T08:14:59.474Z,1013.42
2022-11-06T08:15:59.423Z,1013.36
2022-11-06T08:16:59.428Z,1013.29
2022-11-06T08:17:59.405Z,1013.27
2022-11-06T08:18:59.406Z,1013.31
2022-11-06T08:19:59.391Z,1013.26
2022-11-06T08:20:59.389Z,1013.29
2022-11-06T08:21:59.359Z,1013.27
2022-11-06T08:22:59.395Z,1013.26
2022-11-06T08:23:59.340Z,1013.19
2022-11-06T08:24:59.344Z,1013.19
2022-11-06T08:25:59.321Z,1013.17
2022-11-06T08:26:59.302Z,1013.18
2022-11-06T08:27:59.310Z,1013.13
2022-11-06T08:28:59.360Z,1013.14
2022-11-06T08:29:59.307Z,1013.16
2022-11-06T08:30:59.254Z,1013.17
2022-11-06T08:31:59.285Z,1013.13
2022-11-06T08:32:59.245Z,1013.15
2022-11-06T08:33:59.295Z,1013.10
2022-11-06T08:34:59.231Z,1013.12
2022-11-06T08:35:59.272Z,1013.23
2022-11-06T08:36:59.213Z,1013.16
2022-11-06T08:37:59.192Z,1013.15
2022-11-06T08:38:59.219Z,1013.25
2022-11-06T08:39:59.185Z,1013.18
2022-11-06T08:40:59.198Z,1013.22
2022-11-06T08:41:59.182Z,1013.19
2022-11-06T08:42:59.147Z,1013.22
2022-11-06T08:43:59.137Z,1013.15
2022-11-06T08:44:59.139Z,1013.16
2022-11-06T08:45:59.135Z,1013.08
2022-11-06T08:46:59.096Z,1013.05
2022-11-06T08:47:59.123Z,1013.06
2022-11-06T08:48:59.148Z,1013.09
2022-11-06T08:49:59.083Z,1013.06
2022-11-06T08:50:59.125Z,1012.97
2022-11-06T08:51:59.044Z,1012.96
2022-11-06T08:52:59.097Z,1012.95
2022-11-06T08:53:59.053Z,1012.94
2022-11-06T08:54:59.026Z,1012.92
2022-11-06T08:55:59.005Z,1012.98
2022-11-06T08:56:58.976Z,1012.95
2022-11-06T08:57:58.990Z,1012.91
2022-11-06T08:58:59.016Z,1012.94
2022-11-06T08:59:58.988Z,1012.95
2022-11-06T09:00:59.087Z,1012.89
2022-11-06T09:01:59.041Z,1012.89
2022-11-06T09:02:58.938Z,1012.93
2022-11-06T09:03:58.929Z,1012.91
2022-11-06T09:04:58.939Z,1012.90
2022-11-06T09:05:58.916Z,1012.88
2022-11-06T09:06:58.923Z,1012.89
2022-11-06T09:07:58.868Z,1012.99
2022-11-06T09:08:58.907Z,1012.84
2022-11-06T09:09:58.900Z,1012.96
2022-11-06T09:10:59.100Z,1012.98
2022-11-06T09:11:58.854Z,1013.00
2022-11-06T09:12:58.875Z,1013.06
2022-11-06T09:13:58.837Z,1013.04
2022-11-06T09:14:58.820Z,1013.05
2022-11-06T09:15:58.813Z,1013.08
2022-11-06T09:16:58.763Z,1013.08
2022-11-06T09:17:58.888Z,1013.04
2022-11-06T09:18:58.799Z,1013.04
2022-11-06T09:19:58.761Z,1012.98
2022-11-06T09:20:58.768Z,1012.95
2022-11-06T09:21:58.716Z,1012.92
2022-11-06T09:22:58.720Z,1012.96
2022-11-06T09:23:58.714Z,1012.94
2022-11-06T09:25:03.837Z,1012.93
2022-11-06T09:25:59.662Z,1012.92
2022-11-06T09:26:58.691Z,1012.93
2022-11-06T09:27:59.749Z,1012.90
2022-11-06T09:28:58.845Z,1012.95
2022-11-06T09:29:58.623Z,1012.92
2022-11-06T09:30:58.644Z,1012.88
2022-11-06T09:31:58.655Z,1012.93
2022-11-06T09:32:58.653Z,1012.89
2022-11-06T09:33:58.595Z,1012.92
2022-11-06T09:34:58.636Z,1012.93
2022-11-06T09:36:00.972Z,1012.86
2022-11-06T09:36:58.589Z,1012.86
2022-11-06T09:37:58.545Z,1012.90
2022-11-06T09:38:58.552Z,1012.86
2022-11-06T09:40:04.748Z,1012.87
2022-11-06T09:40:59.520Z,1012.89
2022-11-06T09:41:58.515Z,1012.82
2022-11-06T09:42:58.509Z,1012.83
2022-11-06T09:44:05.197Z,1012.81
2022-11-06T09:44:59.516Z,1012.83
2022-11-06T09:45:58.484Z,1012.78
2022-11-06T09:46:58.446Z,1012.91
2022-11-06T09:47:58.437Z,1012.85
2022-11-06T09:48:58.438Z,1012.83
2022-11-06T09:49:58.435Z,1012.89
2022-11-06T09:50:58.492Z,1012.92
2022-11-06T09:51:58.396Z,1012.88
2022-11-06T09:53:04.674Z,1012.84
2022-11-06T09:53:59.368Z,1012.90
2022-11-06T09:55:00.364Z,1012.93
2022-11-06T09:55:58.379Z,1012.87
2022-11-06T09:56:58.416Z,1012.80
2022-11-06T09:57:58.340Z,1012.99
2022-11-06T09:58:58.307Z,1012.83
2022-11-06T09:59:58.306Z,1012.89
2022-11-06T10:00:58.397Z,1012.86
2022-11-06T10:01:58.504Z,1012.91
2022-11-06T10:02:58.352Z,1012.94
2022-11-06T10:03:58.253Z,1012.89
2022-11-06T10:04:58.259Z,1012.96
2022-11-06T10:05:58.282Z,1012.90
2022-11-06T10:06:58.354Z,1012.89
2022-11-06T10:07:58.233Z,1012.86
2022-11-06T10:08:58.226Z,1013.00
2022-11-06T10:09:58.210Z,1012.91
2022-11-06T10:10:58.201Z,1012.92
2022-11-06T10:11:58.237Z,1012.96
2022-11-06T10:12:58.187Z,1012.94
2022-11-06T10:13:58.163Z,1012.92
2022-11-06T10:14:58.175Z,1012.94
2022-11-06T10:15:58.133Z,1012.94
2022-11-06T10:16:58.132Z,1013.02
2022-11-06T10:17:58.163Z,1013.00
2022-11-06T10:18:58.224Z,1012.97
2022-11-06T10:19:58.126Z,1013.08
2022-11-06T10:20:58.108Z,1013.07
2022-11-06T10:21:58.166Z,1013.09
2022-11-06T10:22:58.065Z,1013.06
2022-11-06T10:23:58.113Z,1013.13
2022-11-06T10:24:58.044Z,1013.08
2022-11-06T10:25:58.029Z,1013.15
2022-11-06T10:26:58.037Z,1013.06
2022-11-06T10:27:58.018Z,1013.14
2022-11-06T10:28:58.006Z,1013.16
2022-11-06T10:29:58.016Z,1013.08
2022-11-06T10:30:57.976Z,1013.05
2022-11-06T10:31:58.045Z,1013.04
2022-11-06T10:32:57.948Z,1013.06
2022-11-06T10:33:58.957Z,1013.07
2022-11-06T10:34:57.933Z,1013.07
2022-11-06T10:36:06.268Z,1012.99
2022-11-06T10:37:04.548Z,1013.04
2022-11-06T10:38:05.871Z,1013.05
2022-11-06T10:38:57.943Z,1013.09
2022-11-06T10:39:57.893Z,1013.08
2022-11-06T10:40:57.971Z,1013.00
2022-11-06T10:41:57.908Z,1013.04
2022-11-06T10:42:57.849Z,1012.98
2022-11-06T10:43:57.894Z,1013.07
2022-11-06T10:44:57.881Z,1012.97
2022-11-06T10:45:57.839Z,1013.06
2022-11-06T10:46:57.819Z,1013.04
2022-11-06T10:47:57.881Z,1012.98
2022-11-06T10:48:57.785Z,1012.98
2022-11-06T10:49:57.770Z,1012.96
2022-11-06T10:50:57.761Z,1012.96
2022-11-06T10:51:57.991Z,1012.92
2022-11-06T10:52:58.790Z,1013.08
2022-11-06T10:53:57.757Z,1013.00
2022-11-06T10:54:57.722Z,1012.92
2022-11-06T10:55:57.700Z,1012.98
2022-11-06T10:56:57.701Z,1013.03
2022-11-06T10:57:57.729Z,1012.96
2022-11-06T10:58:57.703Z,1012.91
2022-11-06T10:59:57.686Z,1012.88
2022-11-06T11:00:57.681Z,1012.96
2022-11-06T11:01:57.752Z,1012.91
2022-11-06T11:02:57.686Z,1012.89
2022-11-06T11:03:57.713Z,1012.85
2022-11-06T11:04:58.437Z,1012.83
2022-11-06T11:05:57.625Z,1012.81
2022-11-06T11:06:57.589Z,1012.80
2022-11-06T11:07:57.594Z,1012.78
2022-11-06T11:08:57.655Z,1012.79
2022-11-06T11:09:57.630Z,1012.76
2022-11-06T11:11:04.830Z,1012.75
2022-11-06T11:11:58.565Z,1012.71
2022-11-06T11:12:57.583Z,1012.70
2022-11-06T11:13:57.604Z,1012.75
2022-11-06T11:14:57.555Z,1012.83
2022-11-06T11:15:57.503Z,1012.75
2022-11-06T11:16:57.507Z,1012.74
2022-11-06T11:17:57.533Z,1012.77
2022-11-06T11:18:57.477Z,1012.78
2022-11-06T11:19:57.456Z,1012.74
2022-11-06T11:20:57.438Z,1012.69
2022-11-06T11:21:57.496Z,1012.68
2022-11-06T11:22:57.517Z,1012.71
2022-11-06T11:23:57.496Z,1012.67
2022-11-06T11:24:57.536Z,1012.66
2022-11-06T11:25:57.461Z,1012.66
2022-11-06T11:26:57.413Z,1012.62
2022-11-06T11:28:10.737Z,1012.61
2022-11-06T11:28:58.385Z,1012.57
2022-11-06T11:29:57.433Z,1012.56
2022-11-06T11:30:57.327Z,1012.54
2022-11-06T11:31:57.369Z,1012.57
2022-11-06T11:32:57.364Z,1012.51
2022-11-06T11:33:57.382Z,1012.55
2022-11-06T11:34:57.395Z,1012.52
2022-11-06T11:35:57.369Z,1012.57
2022-11-06T11:36:57.370Z,1012.69
2022-11-06T11:37:57.488Z,1012.63
2022-11-06T11:38:57.255Z,1012.68
2022-11-06T11:39:57.286Z,1012.57
2022-11-06T11:40:57.226Z,1012.79
2022-11-06T11:41:57.253Z,1012.60
2022-11-06T11:42:57.280Z,1012.72
2022-11-06T11:43:57.251Z,1012.67
2022-11-06T11:44:57.192Z,1012.69
2022-11-06T11:45:57.225Z,1012.58
2022-11-06T11:46:57.221Z,1012.62
2022-11-06T11:47:57.189Z,1012.58
2022-11-06T11:48:57.186Z,1012.62
2022-11-06T11:49:57.160Z,1012.57
2022-11-06T11:50:57.140Z,1012.53
2022-11-06T11:51:57.126Z,1012.47
2022-11-06T11:52:57.084Z,1012.48
2022-11-06T11:53:57.196Z,1012.44
2022-11-06T11:54:57.091Z,1012.45
2022-11-06T11:55:57.063Z,1012.46
2022-11-06T11:57:06.082Z,1012.38
2022-11-06T11:57:58.048Z,1012.44
2022-11-06T11:58:57.057Z,1012.34
2022-11-06T11:59:57.077Z,1012.37
2022-11-06T12:00:57.009Z,1012.35
2022-11-06T12:01:57.199Z,1012.34
2022-11-06T12:02:57.023Z,1012.35
2022-11-06T12:03:56.975Z,1012.33
2022-11-06T12:04:57.065Z,1012.33
2022-11-06T12:05:56.963Z,1012.38